sensor_id;sensor_type;location;lat;lon;timestamp;P1;durP1;ratioP1;P2;durP2;ratioP2
46755;SDS011;32506;52.826;-1.192;2023-03-01T00:00:14;7.18;;;1.48;;
46755;SDS011;32506;52.826;-1.192;2023-03-01T00:02:40;4.68;;;1.67;;
46755;SDS011;32506;52.826;-1.192;2023-03-01T00:05:05;4.07;;;1.27;;
46755;SDS011;32506;52.826;-1.192;2023-03-01T00:07:32;5.85;;;1.80;;
46755;SDS011;32506;52.826;-1.192;2023-03-01T00:09:58;5.95;;;1.30;;
46755;SDS011;32506;52.826;-1.192;2023-03-01T00:12:23;4.47;;;1.42;;
46755;SDS011;32506;52.826;-1.192;2023-03-01T00:14:48;8.85;;;1.63;;
46755;SDS011;32506;52.826;-1.192;2023-03-01T00:17:14;3.88;;;0.93;;
46755;SDS011;32506;52.826;-1.192;2023-03-01T00:19:39;5.80;;;1.48;;
46755;SDS011;32506;52.826;-1.192;2023-03-01T00:22:05;4.63;;;1.25;;
46755;SDS011;32506;52.826;-1.192;2023-03-01T00:24:30;3.97;;;1.17;;
46755;SDS011;32506;52.826;-1.192;2023-03-01T00:26:56;2.85;;;1.00;;
46755;SDS011;32506;52.826;-1.192;2023-03-01T00:29:22;5.40;;;1.20;;
46755;SDS011;32506;52.826;-1.192;2023-03-01T00:31:49;5.10;;;1.23;;
46755;SDS011;32506;52.826;-1.192;2023-03-01T00:34:14;4.55;;;1.20;;
46755;SDS011;32506;52.826;-1.192;2023-03-01T00:36:40;6.00;;;1.10;;
46755;SDS011;32506;52.826;-1.192;2023-03-01T00:39:07;4.18;;;1.23;;
46755;SDS011;32506;52.826;-1.192;2023-03-01T00:41:35;5.53;;;1.30;;
46755;SDS011;32506;52.826;-1.192;2023-03-01T00:44:01;4.53;;;1.00;;
46755;SDS011;32506;52.826;-1.192;2023-03-01T00:46:27;4.43;;;1.55;;
46755;SDS011;32506;52.826;-1.192;2023-03-01T00:48:55;5.57;;;0.90;;
46755;SDS011;32506;52.826;-1.192;2023-03-01T00:51:21;4.30;;;1.15;;
46755;SDS011;32506;52.826;-1.192;2023-03-01T00:53:53;4.25;;;0.95;;
46755;SDS011;32506;52.826;-1.192;2023-03-01T00:56:21;5.15;;;1.10;;
46755;SDS011;32506;52.826;-1.192;2023-03-01T00:58:47;5.05;;;0.95;;
46755;SDS011;32506;52.826;-1.192;2023-03-01T01:01:22;6.22;;;1.48;;
46755;SDS011;32506;52.826;-1.192;2023-03-01T01:03:53;3.92;;;1.00;;
46755;SDS011;32506;52.826;-1.192;2023-03-01T01:06:22;4.47;;;1.17;;
46755;SDS011;32506;52.826;-1.192;2023-03-01T01:08:52;5.97;;;2.30;;
46755;SDS011;32506;52.826;-1.192;2023-03-01T01:11:19;6.35;;;1.55;;
46755;SDS011;32506;52.826;-1.192;2023-03-01T01:13:45;3.13;;;1.20;;
46755;SDS011;32506;52.826;-1.192;2023-03-01T01:16:12;3.85;;;1.02;;
46755;SDS011;32506;52.826;-1.192;2023-03-01T01:18:38;5.60;;;1.65;;
46755;SDS011;32506;52.826;-1.192;2023-03-01T01:21:05;2.90;;;1.05;;
46755;SDS011;32506;52.826;-1.192;2023-03-01T01:23:31;4.50;;;1.40;;
46755;SDS011;32506;52.826;-1.192;2023-03-01T01:25:57;2.70;;;1.20;;
46755;SDS011;32506;52.826;-1.192;2023-03-01T01:28:22;4.65;;;1.50;;
46755;SDS011;32506;52.826;-1.192;2023-03-01T01:30:48;4.45;;;1.17;;
46755;SDS011;32506;52.826;-1.192;2023-03-01T01:33:13;3.58;;;1.95;;
46755;SDS011;32506;52.826;-1.192;2023-03-01T01:35:39;4.43;;;1.00;;
46755;SDS011;32506;52.826;-1.192;2023-03-01T01:38:04;3.78;;;1.33;;
46755;SDS011;32506;52.826;-1.192;2023-03-01T01:40:29;4.25;;;1.70;;
46755;SDS011;32506;52.826;-1.192;2023-03-01T01:42:55;2.97;;;1.00;;
46755;SDS011;32506;52.826;-1.192;2023-03-01T01:47:51;3.90;;;1.33;;
46755;SDS011;32506;52.826;-1.192;2023-03-01T01:50:20;2.08;;;0.90;;
46755;SDS011;32506;52.826;-1.192;2023-03-01T01:52:46;3.05;;;0.90;;
46755;SDS011;32506;52.826;-1.192;2023-03-01T01:55:16;3.17;;;0.90;;
46755;SDS011;32506;52.826;-1.192;2023-03-01T01:57:47;2.90;;;0.80;;
46755;SDS011;32506;52.826;-1.192;2023-03-01T02:00:20;6.10;;;1.48;;
46755;SDS011;32506;52.826;-1.192;2023-03-01T02:02:55;5.53;;;1.20;;
46755;SDS011;32506;52.826;-1.192;2023-03-01T02:05:36;4.18;;;1.10;;
46755;SDS011;32506;52.826;-1.192;2023-03-01T02:08:08;2.70;;;0.80;;
46755;SDS011;32506;52.826;-1.192;2023-03-01T02:10:36;3.25;;;1.23;;
46755;SDS011;32506;52.826;-1.192;2023-03-01T02:13:03;3.17;;;0.80;;
46755;SDS011;32506;52.826;-1.192;2023-03-01T02:15:31;3.75;;;1.27;;
46755;SDS011;32506;52.826;-1.192;2023-03-01T02:17:58;4.43;;;1.35;;
46755;SDS011;32506;52.826;-1.192;2023-03-01T02:23:14;3.38;;;0.90;;
46755;SDS011;32506;52.826;-1.192;2023-03-01T02:31:00;2.63;;;0.80;;
46755;SDS011;32506;52.826;-1.192;2023-03-01T02:33:45;3.15;;;1.00;;
46755;SDS011;32506;52.826;-1.192;2023-03-01T02:36:15;3.35;;;1.10;;
46755;SDS011;32506;52.826;-1.192;2023-03-01T02:38:44;2.20;;;1.50;;
46755;SDS011;32506;52.826;-1.192;2023-03-01T02:41:14;3.05;;;1.25;;
46755;SDS011;32506;52.826;-1.192;2023-03-01T02:43:41;3.85;;;1.20;;
46755;SDS011;32506;52.826;-1.192;2023-03-01T02:46:08;3.05;;;1.33;;
46755;SDS011;32506;52.826;-1.192;2023-03-01T02:48:41;4.60;;;1.75;;
46755;SDS011;32506;52.826;-1.192;2023-03-01T02:51:31;4.07;;;1.42;;
46755;SDS011;32506;52.826;-1.192;2023-03-01T02:54:21;2.75;;;1.67;;
46755;SDS011;32506;52.826;-1.192;2023-03-01T02:57:01;2.55;;;1.38;;
46755;SDS011;32506;52.826;-1.192;2023-03-01T02:59:29;2.47;;;1.48;;
46755;SDS011;32506;52.826;-1.192;2023-03-01T03:02:04;3.60;;;1.38;;
46755;SDS011;32506;52.826;-1.192;2023-03-01T03:04:32;3.50;;;1.40;;
46755;SDS011;32506;52.826;-1.192;2023-03-01T03:06:58;4.40;;;1.52;;
46755;SDS011;32506;52.826;-1.192;2023-03-01T03:09:23;4.18;;;1.95;;
46755;SDS011;32506;52.826;-1.192;2023-03-01T03:11:49;3.83;;;2.40;;
46755;SDS011;32506;52.826;-1.192;2023-03-01T03:14:16;4.85;;;1.80;;
46755;SDS011;32506;52.826;-1.192;2023-03-01T03:16:43;2.90;;;1.85;;
46755;SDS011;32506;52.826;-1.192;2023-03-01T03:19:10;3.13;;;1.92;;
46755;SDS011;32506;52.826;-1.192;2023-03-01T03:21:36;2.67;;;1.73;;
46755;SDS011;32506;52.826;-1.192;2023-03-01T03:24:02;3.33;;;1.38;;
46755;SDS011;32506;52.826;-1.192;2023-03-01T03:26:29;3.60;;;1.70;;
46755;SDS011;32506;52.826;-1.192;2023-03-01T03:28:55;3.72;;;1.90;;
46755;SDS011;32506;52.826;-1.192;2023-03-01T03:31:21;4.82;;;2.00;;
46755;SDS011;32506;52.826;-1.192;2023-03-01T03:33:46;5.07;;;1.85;;
46755;SDS011;32506;52.826;-1.192;2023-03-01T03:36:19;2.35;;;1.77;;
46755;SDS011;32506;52.826;-1.192;2023-03-01T03:38:46;2.53;;;1.58;;
46755;SDS011;32506;52.826;-1.192;2023-03-01T03:41:12;4.85;;;2.15;;
46755;SDS011;32506;52.826;-1.192;2023-03-01T03:43:39;3.85;;;2.45;;
46755;SDS011;32506;52.826;-1.192;2023-03-01T03:46:07;6.22;;;2.20;;
46755;SDS011;32506;52.826;-1.192;2023-03-01T03:48:52;4.93;;;2.10;;
46755;SDS011;32506;52.826;-1.192;2023-03-01T03:51:18;3.28;;;1.75;;
46755;SDS011;32506;52.826;-1.192;2023-03-01T03:53:44;3.65;;;2.05;;
46755;SDS011;32506;52.826;-1.192;2023-03-01T03:56:10;3.33;;;1.95;;
46755;SDS011;32506;52.826;-1.192;2023-03-01T03:58:36;3.58;;;1.90;;
46755;SDS011;32506;52.826;-1.192;2023-03-01T04:01:02;3.88;;;1.85;;
46755;SDS011;32506;52.826;-1.192;2023-03-01T04:03:28;3.88;;;2.03;;
46755;SDS011;32506;52.826;-1.192;2023-03-01T04:05:56;2.83;;;1.92;;
46755;SDS011;32506;52.826;-1.192;2023-03-01T04:08:23;3.35;;;1.98;;
46755;SDS011;32506;52.826;-1.192;2023-03-01T04:10:50;3.63;;;1.80;;
46755;SDS011;32506;52.826;-1.192;2023-03-01T04:13:17;4.55;;;2.13;;
46755;SDS011;32506;52.826;-1.192;2023-03-01T04:15:54;5.00;;;1.65;;
46755;SDS011;32506;52.826;-1.192;2023-03-01T04:18:22;3.22;;;1.55;;
46755;SDS011;32506;52.826;-1.192;2023-03-01T04:20:48;2.92;;;1.50;;
46755;SDS011;32506;52.826;-1.192;2023-03-01T04:23:17;3.08;;;1.50;;
46755;SDS011;32506;52.826;-1.192;2023-03-01T04:25:52;3.25;;;1.75;;
46755;SDS011;32506;52.826;-1.192;2023-03-01T04:28:33;7.93;;;1.83;;
46755;SDS011;32506;52.826;-1.192;2023-03-01T04:31:07;5.13;;;1.90;;
46755;SDS011;32506;52.826;-1.192;2023-03-01T04:36:16;4.20;;;1.70;;
46755;SDS011;32506;52.826;-1.192;2023-03-01T04:38:42;4.47;;;1.77;;
46755;SDS011;32506;52.826;-1.192;2023-03-01T04:41:12;3.72;;;1.58;;
46755;SDS011;32506;52.826;-1.192;2023-03-01T04:43:38;3.25;;;1.63;;
46755;SDS011;32506;52.826;-1.192;2023-03-01T04:46:04;3.67;;;2.05;;
46755;SDS011;32506;52.826;-1.192;2023-03-01T04:48:34;4.07;;;1.70;;
46755;SDS011;32506;52.826;-1.192;2023-03-01T04:51:00;3.53;;;2.10;;
46755;SDS011;32506;52.826;-1.192;2023-03-01T04:53:27;3.13;;;1.58;;
46755;SDS011;32506;52.826;-1.192;2023-03-01T04:55:53;3.78;;;1.65;;
46755;SDS011;32506;52.826;-1.192;2023-03-01T04:58:25;2.72;;;1.75;;
46755;SDS011;32506;52.826;-1.192;2023-03-01T05:00:52;3.17;;;1.90;;
46755;SDS011;32506;52.826;-1.192;2023-03-01T05:03:18;2.80;;;2.10;;
46755;SDS011;32506;52.826;-1.192;2023-03-01T05:05:45;3.38;;;1.95;;
46755;SDS011;32506;52.826;-1.192;2023-03-01T05:08:12;3.90;;;1.67;;
46755;SDS011;32506;52.826;-1.192;2023-03-01T05:10:42;3.30;;;1.80;;
46755;SDS011;32506;52.826;-1.192;2023-03-01T05:13:13;2.97;;;1.88;;
46755;SDS011;32506;52.826;-1.192;2023-03-01T05:15:45;2.70;;;1.40;;
46755;SDS011;32506;52.826;-1.192;2023-03-01T05:18:13;2.53;;;1.67;;
46755;SDS011;32506;52.826;-1.192;2023-03-01T05:20:38;3.38;;;1.90;;
46755;SDS011;32506;52.826;-1.192;2023-03-01T05:23:04;3.13;;;1.63;;
46755;SDS011;32506;52.826;-1.192;2023-03-01T05:25:30;4.30;;;2.10;;
46755;SDS011;32506;52.826;-1.192;2023-03-01T05:28:00;3.13;;;1.90;;
46755;SDS011;32506;52.826;-1.192;2023-03-01T05:30:29;3.58;;;1.77;;
46755;SDS011;32506;52.826;-1.192;2023-03-01T05:32:56;2.50;;;1.52;;
46755;SDS011;32506;52.826;-1.192;2023-03-01T05:35:23;2.90;;;1.75;;
46755;SDS011;32506;52.826;-1.192;2023-03-01T05:37:48;3.80;;;1.58;;
46755;SDS011;32506;52.826;-1.192;2023-03-01T05:40:15;2.10;;;1.70;;
46755;SDS011;32506;52.826;-1.192;2023-03-01T05:42:47;2.03;;;1.50;;
46755;SDS011;32506;52.826;-1.192;2023-03-01T05:45:19;5.03;;;1.45;;
46755;SDS011;32506;52.826;-1.192;2023-03-01T05:47:46;2.70;;;1.48;;
46755;SDS011;32506;52.826;-1.192;2023-03-01T05:50:14;2.88;;;1.80;;
46755;SDS011;32506;52.826;-1.192;2023-03-01T05:52:45;2.42;;;1.75;;
46755;SDS011;32506;52.826;-1.192;2023-03-01T05:55:16;5.15;;;2.00;;
46755;SDS011;32506;52.826;-1.192;2023-03-01T05:57:44;3.83;;;1.98;;
46755;SDS011;32506;52.826;-1.192;2023-03-01T06:00:10;4.05;;;1.75;;
46755;SDS011;32506;52.826;-1.192;2023-03-01T06:02:37;3.70;;;1.60;;
46755;SDS011;32506;52.826;-1.192;2023-03-01T06:05:04;3.70;;;1.85;;
46755;SDS011;32506;52.826;-1.192;2023-03-01T06:07:31;2.58;;;2.15;;
46755;SDS011;32506;52.826;-1.192;2023-03-01T06:09:57;2.22;;;1.70;;
46755;SDS011;32506;52.826;-1.192;2023-03-01T06:12:22;4.40;;;1.55;;
46755;SDS011;32506;52.826;-1.192;2023-03-01T06:14:48;5.22;;;2.08;;
46755;SDS011;32506;52.826;-1.192;2023-03-01T06:17:13;3.13;;;1.58;;
46755;SDS011;32506;52.826;-1.192;2023-03-01T06:19:39;2.85;;;1.83;;
46755;SDS011;32506;52.826;-1.192;2023-03-01T06:22:04;2.47;;;2.03;;
46755;SDS011;32506;52.826;-1.192;2023-03-01T06:24:30;3.20;;;1.70;;
46755;SDS011;32506;52.826;-1.192;2023-03-01T06:26:55;3.05;;;1.80;;
46755;SDS011;32506;52.826;-1.192;2023-03-01T06:29:21;3.10;;;1.98;;
46755;SDS011;32506;52.826;-1.192;2023-03-01T06:31:47;3.63;;;2.00;;
46755;SDS011;32506;52.826;-1.192;2023-03-01T06:34:13;3.88;;;1.92;;
46755;SDS011;32506;52.826;-1.192;2023-03-01T06:36:39;4.13;;;2.42;;
46755;SDS011;32506;52.826;-1.192;2023-03-01T06:39:05;4.28;;;2.60;;
46755;SDS011;32506;52.826;-1.192;2023-03-01T06:41:31;3.28;;;2.20;;
46755;SDS011;32506;52.826;-1.192;2023-03-01T06:43:57;3.30;;;2.10;;
46755;SDS011;32506;52.826;-1.192;2023-03-01T06:46:23;4.15;;;2.28;;
46755;SDS011;32506;52.826;-1.192;2023-03-01T06:48:49;3.97;;;2.40;;
46755;SDS011;32506;52.826;-1.192;2023-03-01T06:51:14;4.07;;;2.15;;
46755;SDS011;32506;52.826;-1.192;2023-03-01T06:53:40;5.10;;;2.50;;
46755;SDS011;32506;52.826;-1.192;2023-03-01T06:56:06;2.90;;;2.13;;
46755;SDS011;32506;52.826;-1.192;2023-03-01T06:58:31;3.60;;;2.50;;
46755;SDS011;32506;52.826;-1.192;2023-03-01T07:00:57;4.32;;;2.20;;
46755;SDS011;32506;52.826;-1.192;2023-03-01T07:03:23;4.03;;;2.50;;
46755;SDS011;32506;52.826;-1.192;2023-03-01T07:05:49;3.95;;;2.60;;
46755;SDS011;32506;52.826;-1.192;2023-03-01T07:08:17;3.42;;;2.30;;
46755;SDS011;32506;52.826;-1.192;2023-03-01T07:10:43;6.50;;;2.35;;
46755;SDS011;32506;52.826;-1.192;2023-03-01T07:13:09;3.40;;;2.28;;
46755;SDS011;32506;52.826;-1.192;2023-03-01T07:15:35;3.95;;;2.40;;
46755;SDS011;32506;52.826;-1.192;2023-03-01T07:18:00;3.47;;;2.05;;
46755;SDS011;32506;52.826;-1.192;2023-03-01T07:20:26;4.38;;;2.33;;
46755;SDS011;32506;52.826;-1.192;2023-03-01T07:22:52;5.68;;;2.47;;
46755;SDS011;32506;52.826;-1.192;2023-03-01T07:25:18;3.83;;;2.33;;
46755;SDS011;32506;52.826;-1.192;2023-03-01T07:27:43;3.53;;;2.20;;
46755;SDS011;32506;52.826;-1.192;2023-03-01T07:30:09;2.83;;;2.00;;
46755;SDS011;32506;52.826;-1.192;2023-03-01T07:32:35;4.13;;;2.15;;
46755;SDS011;32506;52.826;-1.192;2023-03-01T07:35:01;4.22;;;2.05;;
46755;SDS011;32506;52.826;-1.192;2023-03-01T07:37:26;4.28;;;2.20;;
46755;SDS011;32506;52.826;-1.192;2023-03-01T07:39:52;2.60;;;1.75;;
46755;SDS011;32506;52.826;-1.192;2023-03-01T07:42:17;2.97;;;1.98;;
46755;SDS011;32506;52.826;-1.192;2023-03-01T07:44:42;3.13;;;1.77;;
46755;SDS011;32506;52.826;-1.192;2023-03-01T07:47:08;3.85;;;2.05;;
46755;SDS011;32506;52.826;-1.192;2023-03-01T07:49:34;3.10;;;2.10;;
46755;SDS011;32506;52.826;-1.192;2023-03-01T07:51:59;4.95;;;2.08;;
46755;SDS011;32506;52.826;-1.192;2023-03-01T07:54:25;2.67;;;1.67;;
46755;SDS011;32506;52.826;-1.192;2023-03-01T07:56:51;2.30;;;1.75;;
46755;SDS011;32506;52.826;-1.192;2023-03-01T07:59:16;3.38;;;1.63;;
46755;SDS011;32506;52.826;-1.192;2023-03-01T08:01:42;2.70;;;1.92;;
46755;SDS011;32506;52.826;-1.192;2023-03-01T08:04:07;4.80;;;2.00;;
46755;SDS011;32506;52.826;-1.192;2023-03-01T08:06:34;3.83;;;1.85;;
46755;SDS011;32506;52.826;-1.192;2023-03-01T08:09:00;3.55;;;1.80;;
46755;SDS011;32506;52.826;-1.192;2023-03-01T08:11:26;4.90;;;2.67;;
46755;SDS011;32506;52.826;-1.192;2023-03-01T08:13:53;3.10;;;1.98;;
46755;SDS011;32506;52.826;-1.192;2023-03-01T08:16:19;3.30;;;2.10;;
46755;SDS011;32506;52.826;-1.192;2023-03-01T08:18:44;3.05;;;2.00;;
46755;SDS011;32506;52.826;-1.192;2023-03-01T08:21:15;3.25;;;1.55;;
46755;SDS011;32506;52.826;-1.192;2023-03-01T08:23:41;5.10;;;2.23;;
46755;SDS011;32506;52.826;-1.192;2023-03-01T08:26:09;2.92;;;1.75;;
46755;SDS011;32506;52.826;-1.192;2023-03-01T08:28:43;3.95;;;1.73;;
46755;SDS011;32506;52.826;-1.192;2023-03-01T08:31:25;3.03;;;1.65;;
46755;SDS011;32506;52.826;-1.192;2023-03-01T08:33:57;1.98;;;1.33;;
46755;SDS011;32506;52.826;-1.192;2023-03-01T08:36:25;3.15;;;1.73;;
46755;SDS011;32506;52.826;-1.192;2023-03-01T08:38:53;2.58;;;1.30;;
46755;SDS011;32506;52.826;-1.192;2023-03-01T08:41:19;1.88;;;1.23;;
46755;SDS011;32506;52.826;-1.192;2023-03-01T08:43:45;2.08;;;1.20;;
46755;SDS011;32506;52.826;-1.192;2023-03-01T08:46:11;2.47;;;1.27;;
46755;SDS011;32506;52.826;-1.192;2023-03-01T08:48:37;2.50;;;1.38;;
46755;SDS011;32506;52.826;-1.192;2023-03-01T08:53:39;1.23;;;1.00;;
46755;SDS011;32506;52.826;-1.192;2023-03-01T08:56:05;2.05;;;1.17;;
46755;SDS011;32506;52.826;-1.192;2023-03-01T08:58:31;1.58;;;0.90;;
46755;SDS011;32506;52.826;-1.192;2023-03-01T09:00:57;1.48;;;0.95;;
46755;SDS011;32506;52.826;-1.192;2023-03-01T09:03:23;3.13;;;1.20;;
46755;SDS011;32506;52.826;-1.192;2023-03-01T09:05:49;1.70;;;1.00;;
46755;SDS011;32506;52.826;-1.192;2023-03-01T09:08:16;2.60;;;1.08;;
46755;SDS011;32506;52.826;-1.192;2023-03-01T09:10:42;2.22;;;1.10;;
46755;SDS011;32506;52.826;-1.192;2023-03-01T09:13:08;1.73;;;1.00;;
46755;SDS011;32506;52.826;-1.192;2023-03-01T09:15:33;3.72;;;1.67;;
46755;SDS011;32506;52.826;-1.192;2023-03-01T09:17:59;2.65;;;1.30;;
46755;SDS011;32506;52.826;-1.192;2023-03-01T09:20:25;2.47;;;1.15;;
46755;SDS011;32506;52.826;-1.192;2023-03-01T09:22:50;1.77;;;1.05;;
46755;SDS011;32506;52.826;-1.192;2023-03-01T09:25:16;2.95;;;1.13;;
46755;SDS011;32506;52.826;-1.192;2023-03-01T09:27:41;1.27;;;0.80;;
46755;SDS011;32506;52.826;-1.192;2023-03-01T09:30:07;1.48;;;1.10;;
46755;SDS011;32506;52.826;-1.192;2023-03-01T09:32:33;2.40;;;1.08;;
46755;SDS011;32506;52.826;-1.192;2023-03-01T09:34:59;1.10;;;0.98;;
46755;SDS011;32506;52.826;-1.192;2023-03-01T09:37:34;1.65;;;1.10;;
46755;SDS011;32506;52.826;-1.192;2023-03-01T09:40:04;1.95;;;1.00;;
46755;SDS011;32506;52.826;-1.192;2023-03-01T09:42:32;2.45;;;0.93;;
46755;SDS011;32506;52.826;-1.192;2023-03-01T09:45:01;1.75;;;0.80;;
46755;SDS011;32506;52.826;-1.192;2023-03-01T09:47:35;2.13;;;0.98;;
46755;SDS011;32506;52.826;-1.192;2023-03-01T09:52:48;1.77;;;1.08;;
46755;SDS011;32506;52.826;-1.192;2023-03-01T09:55:26;1.80;;;1.10;;
46755;SDS011;32506;52.826;-1.192;2023-03-01T09:57:58;2.17;;;1.20;;
46755;SDS011;32506;52.826;-1.192;2023-03-01T10:00:47;2.80;;;1.10;;
46755;SDS011;32506;52.826;-1.192;2023-03-01T10:03:20;2.33;;;1.05;;
46755;SDS011;32506;52.826;-1.192;2023-03-01T10:11:22;2.88;;;0.98;;
46755;SDS011;32506;52.826;-1.192;2023-03-01T10:16:22;1.48;;;0.70;;
46755;SDS011;32506;52.826;-1.192;2023-03-01T10:19:02;2.80;;;0.85;;
46755;SDS011;32506;52.826;-1.192;2023-03-01T10:21:31;1.25;;;0.57;;
46755;SDS011;32506;52.826;-1.192;2023-03-01T10:24:10;2.50;;;1.00;;
46755;SDS011;32506;52.826;-1.192;2023-03-01T10:26:54;2.33;;;0.80;;
46755;SDS011;32506;52.826;-1.192;2023-03-01T10:31:59;2.83;;;0.90;;
46755;SDS011;32506;52.826;-1.192;2023-03-01T10:34:33;1.48;;;0.75;;
46755;SDS011;32506;52.826;-1.192;2023-03-01T10:37:10;3.22;;;1.08;;
46755;SDS011;32506;52.826;-1.192;2023-03-01T10:39:53;2.80;;;1.00;;
46755;SDS011;32506;52.826;-1.192;2023-03-01T10:42:30;2.80;;;1.00;;
46755;SDS011;32506;52.826;-1.192;2023-03-01T10:44:59;4.43;;;1.00;;
46755;SDS011;32506;52.826;-1.192;2023-03-01T10:47:41;1.42;;;0.70;;
46755;SDS011;32506;52.826;-1.192;2023-03-01T10:50:20;3.35;;;0.90;;
46755;SDS011;32506;52.826;-1.192;2023-03-01T10:52:57;3.50;;;1.48;;
46755;SDS011;32506;52.826;-1.192;2023-03-01T11:00:55;1.98;;;0.90;;
46755;SDS011;32506;52.826;-1.192;2023-03-01T11:03:23;1.98;;;0.82;;
46755;SDS011;32506;52.826;-1.192;2023-03-01T11:05:59;2.08;;;0.95;;
46755;SDS011;32506;52.826;-1.192;2023-03-01T11:08:41;2.90;;;0.98;;
46755;SDS011;32506;52.826;-1.192;2023-03-01T11:11:26;1.77;;;1.00;;
46755;SDS011;32506;52.826;-1.192;2023-03-01T11:14:00;1.45;;;0.90;;
46755;SDS011;32506;52.826;-1.192;2023-03-01T11:16:40;3.10;;;1.50;;
46755;SDS011;32506;52.826;-1.192;2023-03-01T11:21:34;3.72;;;1.08;;
46755;SDS011;32506;52.826;-1.192;2023-03-01T11:24:04;1.95;;;1.05;;
46755;SDS011;32506;52.826;-1.192;2023-03-01T11:26:35;3.00;;;1.13;;
46755;SDS011;32506;52.826;-1.192;2023-03-01T11:29:06;2.55;;;0.98;;
46755;SDS011;32506;52.826;-1.192;2023-03-01T11:31:43;2.70;;;1.38;;
46755;SDS011;32506;52.826;-1.192;2023-03-01T11:34:12;5.07;;;2.00;;
46755;SDS011;32506;52.826;-1.192;2023-03-01T11:36:49;1.98;;;1.00;;
46755;SDS011;32506;52.826;-1.192;2023-03-01T11:44:56;2.72;;;1.27;;
46755;SDS011;32506;52.826;-1.192;2023-03-01T11:47:34;3.95;;;1.30;;
46755;SDS011;32506;52.826;-1.192;2023-03-01T11:55:20;4.13;;;1.65;;
46755;SDS011;32506;52.826;-1.192;2023-03-01T11:58:03;4.28;;;1.92;;
46755;SDS011;32506;52.826;-1.192;2023-03-01T12:03:42;3.95;;;1.80;;
46755;SDS011;32506;52.826;-1.192;2023-03-01T12:26:10;4.43;;;1.95;;
46755;SDS011;32506;52.826;-1.192;2023-03-01T12:29:07;7.15;;;2.47;;
46755;SDS011;32506;52.826;-1.192;2023-03-01T12:31:51;5.43;;;2.35;;
46755;SDS011;32506;52.826;-1.192;2023-03-01T12:34:50;4.43;;;1.30;;
46755;SDS011;32506;52.826;-1.192;2023-03-01T12:37:36;4.50;;;1.63;;
46755;SDS011;32506;52.826;-1.192;2023-03-01T12:40:21;6.18;;;1.60;;
46755;SDS011;32506;52.826;-1.192;2023-03-01T12:48:59;2.88;;;0.82;;
46755;SDS011;32506;52.826;-1.192;2023-03-01T12:51:35;2.78;;;1.20;;
46755;SDS011;32506;52.826;-1.192;2023-03-01T12:54:10;3.75;;;0.93;;
46755;SDS011;32506;52.826;-1.192;2023-03-01T12:56:41;5.13;;;1.10;;
46755;SDS011;32506;52.826;-1.192;2023-03-01T13:07:30;3.75;;;1.13;;
46755;SDS011;32506;52.826;-1.192;2023-03-01T13:12:50;3.20;;;0.60;;
46755;SDS011;32506;52.826;-1.192;2023-03-01T13:17:48;2.17;;;0.85;;
46755;SDS011;32506;52.826;-1.192;2023-03-01T13:20:18;2.10;;;0.60;;
46755;SDS011;32506;52.826;-1.192;2023-03-01T13:22:46;3.83;;;0.45;;
46755;SDS011;32506;52.826;-1.192;2023-03-01T13:25:16;3.22;;;0.65;;
46755;SDS011;32506;52.826;-1.192;2023-03-01T13:27:45;3.53;;;1.30;;
46755;SDS011;32506;52.826;-1.192;2023-03-01T13:35:58;3.17;;;0.60;;
46755;SDS011;32506;52.826;-1.192;2023-03-01T13:46:44;2.05;;;0.55;;
46755;SDS011;32506;52.826;-1.192;2023-03-01T13:49:14;2.22;;;0.55;;
46755;SDS011;32506;52.826;-1.192;2023-03-01T13:51:46;2.03;;;0.80;;
46755;SDS011;32506;52.826;-1.192;2023-03-01T13:54:12;1.98;;;0.50;;
46755;SDS011;32506;52.826;-1.192;2023-03-01T13:56:39;1.90;;;0.70;;
46755;SDS011;32506;52.826;-1.192;2023-03-01T13:59:06;1.83;;;0.47;;
46755;SDS011;32506;52.826;-1.192;2023-03-01T14:01:37;5.03;;;1.33;;
46755;SDS011;32506;52.826;-1.192;2023-03-01T14:04:14;3.03;;;0.60;;
46755;SDS011;32506;52.826;-1.192;2023-03-01T14:06:47;2.90;;;0.63;;
46755;SDS011;32506;52.826;-1.192;2023-03-01T14:09:23;3.20;;;0.73;;
46755;SDS011;32506;52.826;-1.192;2023-03-01T14:12:17;5.65;;;1.60;;
46755;SDS011;32506;52.826;-1.192;2023-03-01T14:17:52;3.70;;;1.10;;
46755;SDS011;32506;52.826;-1.192;2023-03-01T14:20:20;1.80;;;0.70;;
46755;SDS011;32506;52.826;-1.192;2023-03-01T14:22:52;2.35;;;0.80;;
46755;SDS011;32506;52.826;-1.192;2023-03-01T14:25:25;1.88;;;0.60;;
46755;SDS011;32506;52.826;-1.192;2023-03-01T14:27:58;2.72;;;0.82;;
46755;SDS011;32506;52.826;-1.192;2023-03-01T14:30:28;3.05;;;0.75;;
46755;SDS011;32506;52.826;-1.192;2023-03-01T14:33:04;2.20;;;1.08;;
46755;SDS011;32506;52.826;-1.192;2023-03-01T14:35:32;5.80;;;0.80;;
46755;SDS011;32506;52.826;-1.192;2023-03-01T14:38:01;1.75;;;0.60;;
46755;SDS011;32506;52.826;-1.192;2023-03-01T14:40:28;3.55;;;0.90;;
46755;SDS011;32506;52.826;-1.192;2023-03-01T14:42:57;3.38;;;0.95;;
46755;SDS011;32506;52.826;-1.192;2023-03-01T14:45:26;3.72;;;1.02;;
46755;SDS011;32506;52.826;-1.192;2023-03-01T14:47:54;3.42;;;1.05;;
46755;SDS011;32506;52.826;-1.192;2023-03-01T14:52:53;2.65;;;0.60;;
46755;SDS011;32506;52.826;-1.192;2023-03-01T14:55:26;2.42;;;1.10;;
46755;SDS011;32506;52.826;-1.192;2023-03-01T14:57:54;3.22;;;0.70;;
46755;SDS011;32506;52.826;-1.192;2023-03-01T15:00:25;4.32;;;1.25;;
46755;SDS011;32506;52.826;-1.192;2023-03-01T15:02:53;3.70;;;0.70;;
46755;SDS011;32506;52.826;-1.192;2023-03-01T15:05:26;6.28;;;1.00;;
46755;SDS011;32506;52.826;-1.192;2023-03-01T15:07:55;3.50;;;0.93;;
46755;SDS011;32506;52.826;-1.192;2023-03-01T15:10:24;3.75;;;0.90;;
46755;SDS011;32506;52.826;-1.192;2023-03-01T15:15:49;3.92;;;0.90;;
46755;SDS011;32506;52.826;-1.192;2023-03-01T15:18:19;2.72;;;0.77;;
46755;SDS011;32506;52.826;-1.192;2023-03-01T15:20:47;3.45;;;1.40;;
46755;SDS011;32506;52.826;-1.192;2023-03-01T15:23:21;2.70;;;0.90;;
46755;SDS011;32506;52.826;-1.192;2023-03-01T15:25:48;3.53;;;1.25;;
46755;SDS011;32506;52.826;-1.192;2023-03-01T15:28:21;4.13;;;0.90;;
46755;SDS011;32506;52.826;-1.192;2023-03-01T15:30:55;3.38;;;0.82;;
46755;SDS011;32506;52.826;-1.192;2023-03-01T15:33:42;3.22;;;0.80;;
46755;SDS011;32506;52.826;-1.192;2023-03-01T15:38:56;2.53;;;0.80;;
46755;SDS011;32506;52.826;-1.192;2023-03-01T15:41:30;3.78;;;0.80;;
46755;SDS011;32506;52.826;-1.192;2023-03-01T15:43:56;2.22;;;0.70;;
46755;SDS011;32506;52.826;-1.192;2023-03-01T15:49:05;1.58;;;0.50;;
46755;SDS011;32506;52.826;-1.192;2023-03-01T15:51:50;2.67;;;0.68;;
46755;SDS011;32506;52.826;-1.192;2023-03-01T15:54:19;1.75;;;0.52;;
46755;SDS011;32506;52.826;-1.192;2023-03-01T15:56:47;3.67;;;0.75;;
46755;SDS011;32506;52.826;-1.192;2023-03-01T15:59:13;4.00;;;1.48;;
46755;SDS011;32506;52.826;-1.192;2023-03-01T16:01:39;4.13;;;1.08;;
46755;SDS011;32506;52.826;-1.192;2023-03-01T16:04:05;3.42;;;0.98;;
46755;SDS011;32506;52.826;-1.192;2023-03-01T16:06:31;3.63;;;0.80;;
46755;SDS011;32506;52.826;-1.192;2023-03-01T16:08:56;3.47;;;1.05;;
46755;SDS011;32506;52.826;-1.192;2023-03-01T16:11:22;4.30;;;1.00;;
46755;SDS011;32506;52.826;-1.192;2023-03-01T16:13:48;4.70;;;0.77;;
46755;SDS011;32506;52.826;-1.192;2023-03-01T16:16:15;2.63;;;1.00;;
46755;SDS011;32506;52.826;-1.192;2023-03-01T16:18:41;5.32;;;1.38;;
46755;SDS011;32506;52.826;-1.192;2023-03-01T16:21:15;2.53;;;1.13;;
46755;SDS011;32506;52.826;-1.192;2023-03-01T16:23:45;4.07;;;1.10;;
46755;SDS011;32506;52.826;-1.192;2023-03-01T16:26:11;3.28;;;1.02;;
46755;SDS011;32506;52.826;-1.192;2023-03-01T16:28:37;4.30;;;1.08;;
46755;SDS011;32506;52.826;-1.192;2023-03-01T16:31:03;3.50;;;1.00;;
46755;SDS011;32506;52.826;-1.192;2023-03-01T16:33:29;3.67;;;1.08;;
46755;SDS011;32506;52.826;-1.192;2023-03-01T16:35:55;3.60;;;0.95;;
46755;SDS011;32506;52.826;-1.192;2023-03-01T16:38:20;5.25;;;1.20;;
46755;SDS011;32506;52.826;-1.192;2023-03-01T16:40:47;5.25;;;1.20;;
46755;SDS011;32506;52.826;-1.192;2023-03-01T16:43:14;3.90;;;1.02;;